sensor_id;sensor_type;location;lat;lon;timestamp;temperature;humidity
66582;SHT31;53438;48.898;2.308;2024-03-02T00:00:35;8.02;81.39
66582;SHT31;53438;48.898;2.308;2024-03-02T00:03:00;8.03;81.16
66582;SHT31;53438;48.898;2.308;2024-03-02T00:05:26;8.03;81.13
66582;SHT31;53438;48.898;2.308;2024-03-02T00:10:25;7.99;81.24
66582;SHT31;53438;48.898;2.308;2024-03-02T00:12:55;7.95;81.20
66582;SHT31;53438;48.898;2.308;2024-03-02T00:18:11;7.91;81.34
66582;SHT31;53438;48.898;2.308;2024-03-02T00:20:38;7.94;81.34
66582;SHT31;53438;48.898;2.308;2024-03-02T00:23:05;7.95;81.28
66582;SHT31;53438;48.898;2.308;2024-03-02T00:25:41;7.96;80.91
66582;SHT31;53438;48.898;2.308;2024-03-02T00:28:29;8.02;80.77
66582;SHT31;53438;48.898;2.308;2024-03-02T00:31:08;7.96;80.99
66582;SHT31;53438;48.898;2.308;2024-03-02T00:33:47;8.01;80.83
66582;SHT31;53438;48.898;2.308;2024-03-02T00:36:29;7.99;81.08
66582;SHT31;53438;48.898;2.308;2024-03-02T00:38:55;8.02;81.08
66582;SHT31;53438;48.898;2.308;2024-03-02T00:41:31;7.98;81.31
66582;SHT31;53438;48.898;2.308;2024-03-02T00:44:03;7.92;81.32
66582;SHT31;53438;48.898;2.308;2024-03-02T00:46:36;7.94;81.38
66582;SHT31;53438;48.898;2.308;2024-03-02T00:49:03;7.94;81.34
66582;SHT31;53438;48.898;2.308;2024-03-02T00:51:32;7.92;81.45
66582;SHT31;53438;48.898;2.308;2024-03-02T00:53:59;7.92;81.55
66582;SHT31;53438;48.898;2.308;2024-03-02T00:56:25;7.89;81.67
66582;SHT31;53438;48.898;2.308;2024-03-02T00:58:52;7.94;81.63
66582;SHT31;53438;48.898;2.308;2024-03-02T04:00:14;7.10;83.76
66582;SHT31;53438;48.898;2.308;2024-03-02T04:02:39;7.06;83.63
66582;SHT31;53438;48.898;2.308;2024-03-02T04:05:05;7.06;83.76
66582;SHT31;53438;48.898;2.308;2024-03-02T04:07:35;7.06;83.89
66582;SHT31;53438;48.898;2.308;2024-03-02T04:10:08;7.09;83.70
66582;SHT31;53438;48.898;2.308;2024-03-02T04:12:35;7.06;83.80
66582;SHT31;53438;48.898;2.308;2024-03-02T04:15:02;7.07;83.89
66582;SHT31;53438;48.898;2.308;2024-03-02T04:17:29;7.00;83.86
66582;SHT31;53438;48.898;2.308;2024-03-02T04:19:54;7.02;83.88
66582;SHT31;53438;48.898;2.308;2024-03-02T04:22:19;7.03;84.00
66582;SHT31;53438;48.898;2.308;2024-03-02T04:24:45;7.03;83.79
66582;SHT31;53438;48.898;2.308;2024-03-02T04:27:10;7.03;83.72
66582;SHT31;53438;48.898;2.308;2024-03-02T04:29:35;7.06;83.78
66582;SHT31;53438;48.898;2.308;2024-03-02T04:32:01;7.02;83.62
66582;SHT31;53438;48.898;2.308;2024-03-02T04:34:26;7.03;83.60
66582;SHT31;53438;48.898;2.308;2024-03-02T04:36:51;7.03;83.59
66582;SHT31;53438;48.898;2.308;2024-03-02T04:39:17;7.07;83.41
66582;SHT31;53438;48.898;2.308;2024-03-02T04:41:42;7.00;83.37
66582;SHT31;53438;48.898;2.308;2024-03-02T04:44:07;6.96;83.42
66582;SHT31;53438;48.898;2.308;2024-03-02T04:46:33;6.99;83.47
66582;SHT31;53438;48.898;2.308;2024-03-02T04:48:58;6.93;83.54
66582;SHT31;53438;48.898;2.308;2024-03-02T04:51:23;7.00;83.56
66582;SHT31;53438;48.898;2.308;2024-03-02T04:53:49;6.97;83.27
66582;SHT31;53438;48.898;2.308;2024-03-02T04:56:14;6.95;83.35
66582;SHT31;53438;48.898;2.308;2024-03-02T04:59:05;6.97;83.28
66582;SHT31;53438;48.898;2.308;2024-03-02T05:01:31;7.00;83.28
66582;SHT31;53438;48.898;2.308;2024-03-02T05:03:57;6.97;83.27
66582;SHT31;53438;48.898;2.308;2024-03-02T05:06:22;6.99;83.41
66582;SHT31;53438;48.898;2.308;2024-03-02T05:08:48;6.95;83.42
66582;SHT31;53438;48.898;2.308;2024-03-02T05:11:14;6.95;83.71
66582;SHT31;53438;48.898;2.308;2024-03-02T05:14:14;6.96;83.57
66582;SHT31;53438;48.898;2.308;2024-03-02T05:16:39;6.96;83.55
66582;SHT31;53438;48.898;2.308;2024-03-02T05:19:06;7.00;83.73
66582;SHT31;53438;48.898;2.308;2024-03-02T05:21:32;6.96;83.71
66582;SHT31;53438;48.898;2.308;2024-03-02T05:23:58;6.97;83.84
66582;SHT31;53438;48.898;2.308;2024-03-02T05:26:23;6.93;83.95
66582;SHT31;53438;48.898;2.308;2024-03-02T05:28:49;6.92;83.99
66582;SHT31;53438;48.898;2.308;2024-03-02T05:31:17;6.92;84.04
66582;SHT31;53438;48.898;2.308;2024-03-02T05:33:43;6.95;84.06
66582;SHT31;53438;48.898;2.308;2024-03-02T05:36:09;6.96;83.98
66582;SHT31;53438;48.898;2.308;2024-03-02T05:38:35;6.96;84.11
66582;SHT31;53438;48.898;2.308;2024-03-02T05:41:00;6.99;84.20
66582;SHT31;53438;48.898;2.308;2024-03-02T05:43:26;6.93;84.25
66582;SHT31;53438;48.898;2.308;2024-03-02T05:45:51;6.93;84.37
66582;SHT31;53438;48.898;2.308;2024-03-02T05:48:17;6.97;84.49
66582;SHT31;53438;48.898;2.308;2024-03-02T05:50:42;6.96;84.45
66582;SHT31;53438;48.898;2.308;2024-03-02T05:53:07;7.00;84.57
66582;SHT31;53438;48.898;2.308;2024-03-02T05:55:33;6.97;84.52
66582;SHT31;53438;48.898;2.308;2024-03-02T05:57:58;6.96;84.75
66582;SHT31;53438;48.898;2.308;2024-03-02T06:00:23;6.97;84.70
66582;SHT31;53438;48.898;2.308;2024-03-02T06:02:49;7.00;84.68
66582;SHT31;53438;48.898;2.308;2024-03-02T06:05:14;7.06;84.72
66582;SHT31;53438;48.898;2.308;2024-03-02T06:07:40;7.07;84.63
66582;SHT31;53438;48.898;2.308;2024-03-02T06:10:06;7.12;84.71
66582;SHT31;53438;48.898;2.308;2024-03-02T06:12:34;7.10;84.63
66582;SHT31;53438;48.898;2.308;2024-03-02T06:14:59;7.07;84.74
66582;SHT31;53438;48.898;2.308;2024-03-02T06:17:25;7.09;84.92
66582;SHT31;53438;48.898;2.308;2024-03-02T06:19:50;7.09;84.86
66582;SHT31;53438;48.898;2.308;2024-03-02T06:22:15;7.13;84.95
66582;SHT31;53438;48.898;2.308;2024-03-02T06:24:41;7.15;84.95
66582;SHT31;53438;48.898;2.308;2024-03-02T06:27:06;7.12;85.05
66582;SHT31;53438;48.898;2.308;2024-03-02T06:29:34;7.06;85.11
66582;SHT31;53438;48.898;2.308;2024-03-02T06:32:00;7.09;85.31
66582;SHT31;53438;48.898;2.308;2024-03-02T06:34:25;7.10;85.25
66582;SHT31;53438;48.898;2.308;2024-03-02T06:36:51;7.10;85.18
66582;SHT31;53438;48.898;2.308;2024-03-02T06:39:16;7.12;85.38
66582;SHT31;53438;48.898;2.308;2024-03-02T06:41:41;7.13;85.25
66582;SHT31;53438;48.898;2.308;2024-03-02T06:44:07;7.15;85.35
66582;SHT31;53438;48.898;2.308;2024-03-02T06:46:33;7.16;85.12
66582;SHT31;53438;48.898;2.308;2024-03-02T06:48:58;7.20;85.09
66582;SHT31;53438;48.898;2.308;2024-03-02T06:51:23;7.16;85.04
66582;SHT31;53438;48.898;2.308;2024-03-02T06:53:49;7.24;85.24
66582;SHT31;53438;48.898;2.308;2024-03-02T06:56:14;7.20;85.06
66582;SHT31;53438;48.898;2.308;2024-03-02T06:58:40;7.26;85.13
66582;SHT31;53438;48.898;2.308;2024-03-02T07:01:05;7.30;85.16
66582;SHT31;53438;48.898;2.308;2024-03-02T07:03:30;7.30;85.08
66582;SHT31;53438;48.898;2.308;2024-03-02T07:05:56;7.30;84.94
66582;SHT31;53438;48.898;2.308;2024-03-02T07:08:22;7.36;85.02
66582;SHT31;53438;48.898;2.308;2024-03-02T07:10:47;7.37;84.89
66582;SHT31;53438;48.898;2.308;2024-03-02T07:13:12;7.37;84.88
66582;SHT31;53438;48.898;2.308;2024-03-02T07:15:38;7.37;84.91
66582;SHT31;53438;48.898;2.308;2024-03-02T07:18:22;7.40;84.81
66582;SHT31;53438;48.898;2.308;2024-03-02T07:20:47;7.38;84.87
66582;SHT31;53438;48.898;2.308;2024-03-02T07:23:14;7.40;84.98
66582;SHT31;53438;48.898;2.308;2024-03-02T07:25:39;7.43;85.05
66582;SHT31;53438;48.898;2.308;2024-03-02T07:28:05;7.47;85.04
66582;SHT31;53438;48.898;2.308;2024-03-02T07:30:32;7.48;85.09
66582;SHT31;53438;48.898;2.308;2024-03-02T07:32:57;7.48;85.02
66582;SHT31;53438;48.898;2.308;2024-03-02T07:35:23;7.51;85.17
66582;SHT31;53438;48.898;2.308;2024-03-02T07:37:53;7.60;85.13
66582;SHT31;53438;48.898;2.308;2024-03-02T07:40:19;7.61;85.01
66582;SHT31;53438;48.898;2.308;2024-03-02T07:42:45;7.61;84.99
66582;SHT31;53438;48.898;2.308;2024-03-02T07:45:10;7.60;84.96
66582;SHT31;53438;48.898;2.308;2024-03-02T07:47:36;7.67;85.03
66582;SHT31;53438;48.898;2.308;2024-03-02T07:50:02;7.70;84.99
66582;SHT31;53438;48.898;2.308;2024-03-02T07:52:27;7.75;84.72
66582;SHT31;53438;48.898;2.308;2024-03-02T07:54:53;7.78;84.65
66582;SHT31;53438;48.898;2.308;2024-03-02T07:57:19;7.82;84.65
66582;SHT31;53438;48.898;2.308;2024-03-02T07:59:45;7.87;84.52
66582;SHT31;53438;48.898;2.308;2024-03-02T08:02:10;7.94;84.48
66582;SHT31;53438;48.898;2.308;2024-03-02T08:04:36;7.96;84.12
66582;SHT31;53438;48.898;2.308;2024-03-02T08:07:02;8.01;84.06
66582;SHT31;53438;48.898;2.308;2024-03-02T08:09:28;8.01;83.72
66582;SHT31;53438;48.898;2.308;2024-03-02T08:11:53;8.05;83.81
66582;SHT31;53438;48.898;2.308;2024-03-02T08:14:18;8.06;83.64
66582;SHT31;53438;48.898;2.308;2024-03-02T08:16:44;8.10;83.61
66582;SHT31;53438;48.898;2.308;2024-03-02T08:19:10;8.12;83.67
66582;SHT31;53438;48.898;2.308;2024-03-02T08:21:35;8.18;83.76
66582;SHT31;53438;48.898;2.308;2024-03-02T08:24:02;8.16;84.07
66582;SHT31;53438;48.898;2.308;2024-03-02T08:26:28;8.21;84.37
66582;SHT31;53438;48.898;2.308;2024-03-02T08:28:57;8.16;84.22
66582;SHT31;53438;48.898;2.308;2024-03-02T08:31:28;8.15;84.79
66582;SHT31;53438;48.898;2.308;2024-03-02T08:33:54;8.15;84.55
66582;SHT31;53438;48.898;2.308;2024-03-02T08:36:19;8.15;84.66
66582;SHT31;53438;48.898;2.308;2024-03-02T08:38:45;8.21;84.91
66582;SHT31;53438;48.898;2.308;2024-03-02T08:41:10;8.19;84.50
66582;SHT31;53438;48.898;2.308;2024-03-02T08:43:38;8.16;84.49
66582;SHT31;53438;48.898;2.308;2024-03-02T08:46:04;8.21;84.60
66582;SHT31;53438;48.898;2.308;2024-03-02T08:48:29;8.19;84.35
66582;SHT31;53438;48.898;2.308;2024-03-02T08:50:54;8.21;84.09
66582;SHT31;53438;48.898;2.308;2024-03-02T08:53:20;8.24;84.08
66582;SHT31;53438;48.898;2.308;2024-03-02T08:55:48;8.22;83.87
66582;SHT31;53438;48.898;2.308;2024-03-02T08:58:14;8.24;83.90
66582;SHT31;53438;48.898;2.308;2024-03-02T09:00:40;8.24;83.65
66582;SHT31;53438;48.898;2.308;2024-03-02T09:03:05;8.24;83.72
66582;SHT31;53438;48.898;2.308;2024-03-02T09:05:31;8.26;83.82
66582;SHT31;53438;48.898;2.308;2024-03-02T09:07:56;8.30;83.89
66582;SHT31;53438;48.898;2.308;2024-03-02T09:10:22;8.32;84.14
66582;SHT31;53438;48.898;2.308;2024-03-02T09:12:47;8.32;83.98
66582;SHT31;53438;48.898;2.308;2024-03-02T09:15:12;8.33;84.04
66582;SHT31;53438;48.898;2.308;2024-03-02T09:17:38;8.35;84.15
66582;SHT31;53438;48.898;2.308;2024-03-02T09:20:04;8.29;84.00
66582;SHT31;53438;48.898;2.308;2024-03-02T09:22:30;8.30;84.64
66582;SHT31;53438;48.898;2.308;2024-03-02T09:24:55;8.25;84.92
66582;SHT31;53438;48.898;2.308;2024-03-02T09:27:21;8.25;85.09
66582;SHT31;53438;48.898;2.308;2024-03-02T09:29:49;8.29;84.87
66582;SHT31;53438;48.898;2.308;2024-03-02T09:32:15;8.24;85.64
66582;SHT31;53438;48.898;2.308;2024-03-02T09:34:41;8.26;85.70
66582;SHT31;53438;48.898;2.308;2024-03-02T09:37:06;8.24;85.89
66582;SHT31;53438;48.898;2.308;2024-03-02T09:39:32;8.24;86.06
66582;SHT31;53438;48.898;2.308;2024-03-02T09:41:59;8.24;86.20
66582;SHT31;53438;48.898;2.308;2024-03-02T09:44:26;8.26;86.79
66582;SHT31;53438;48.898;2.308;2024-03-02T09:46:51;8.28;86.49
66582;SHT31;53438;48.898;2.308;2024-03-02T09:49:17;8.22;86.83
66582;SHT31;53438;48.898;2.308;2024-03-02T09:51:48;8.25;87.05
66582;SHT31;53438;48.898;2.308;2024-03-02T09:54:15;8.29;87.32
66582;SHT31;53438;48.898;2.308;2024-03-02T09:56:41;8.28;87.70
66582;SHT31;53438;48.898;2.308;2024-03-02T09:59:06;8.32;87.55
66582;SHT31;53438;48.898;2.308;2024-03-02T10:01:31;8.36;87.32
66582;SHT31;53438;48.898;2.308;2024-03-02T10:04:00;8.39;87.33
66582;SHT31;53438;48.898;2.308;2024-03-02T10:06:28;8.43;87.32
66582;SHT31;53438;48.898;2.308;2024-03-02T10:08:54;8.45;87.57
66582;SHT31;53438;48.898;2.308;2024-03-02T10:11:34;8.50;87.50
66582;SHT31;53438;48.898;2.308;2024-03-02T10:16:37;8.56;88.00
66582;SHT31;53438;48.898;2.308;2024-03-02T10:19:19;8.54;88.35
66582;SHT31;53438;48.898;2.308;2024-03-02T10:21:51;8.57;88.16
66582;SHT31;53438;48.898;2.308;2024-03-02T10:24:18;8.56;87.99
66582;SHT31;53438;48.898;2.308;2024-03-02T10:26:43;8.56;88.10
66582;SHT31;53438;48.898;2.308;2024-03-02T10:29:12;8.57;88.40
66582;SHT31;53438;48.898;2.308;2024-03-02T10:31:39;8.61;88.36
66582;SHT31;53438;48.898;2.308;2024-03-02T10:34:09;8.61;87.93
66582;SHT31;53438;48.898;2.308;2024-03-02T10:36:35;8.64;88.12
66582;SHT31;53438;48.898;2.308;2024-03-02T10:39:02;8.66;88.35
66582;SHT31;53438;48.898;2.308;2024-03-02T10:41:33;8.71;88.22
66582;SHT31;53438;48.898;2.308;2024-03-02T10:44:02;8.74;88.50
66582;SHT31;53438;48.898;2.308;2024-03-02T10:46:29;8.78;88.44
66582;SHT31;53438;48.898;2.308;2024-03-02T10:48:55;8.81;88.05
66582;SHT31;53438;48.898;2.308;2024-03-02T10:51:21;8.80;87.80
66582;SHT31;53438;48.898;2.308;2024-03-02T10:53:46;8.83;87.95
66582;SHT31;53438;48.898;2.308;2024-03-02T10:56:16;8.88;88.10
66582;SHT31;53438;48.898;2.308;2024-03-02T10:58:50;8.91;87.45
66582;SHT31;53438;48.898;2.308;2024-03-02T11:01:17;8.92;87.46
66582;SHT31;53438;48.898;2.308;2024-03-02T11:03:44;8.94;86.94
66582;SHT31;53438;48.898;2.308;2024-03-02T11:06:11;8.94;86.81
66582;SHT31;53438;48.898;2.308;2024-03-02T11:08:38;8.98;86.29
66582;SHT31;53438;48.898;2.308;2024-03-02T11:11:19;8.98;86.35
66582;SHT31;53438;48.898;2.308;2024-03-02T11:13:50;9.03;86.12
66582;SHT31;53438;48.898;2.308;2024-03-02T11:16:33;9.01;85.97
66582;SHT31;53438;48.898;2.308;2024-03-02T11:19:13;9.01;86.35
66582;SHT31;53438;48.898;2.308;2024-03-02T11:21:39;9.08;86.16
66582;SHT31;53438;48.898;2.308;2024-03-02T11:26:51;9.04;86.28
66582;SHT31;53438;48.898;2.308;2024-03-02T11:32:01;9.08;86.24
66582;SHT31;53438;48.898;2.308;2024-03-02T11:34:30;9.00;84.34
66582;SHT31;53438;48.898;2.308;2024-03-02T11:36:57;9.01;83.89
66582;SHT31;53438;48.898;2.308;2024-03-02T11:39:22;9.01;83.76
66582;SHT31;53438;48.898;2.308;2024-03-02T11:41:48;9.01;83.74
66582;SHT31;53438;48.898;2.308;2024-03-02T11:44:14;9.01;82.94
66582;SHT31;53438;48.898;2.308;2024-03-02T11:46:40;9.05;82.53
66582;SHT31;53438;48.898;2.308;2024-03-02T11:49:05;9.11;82.47
66582;SHT31;53438;48.898;2.308;2024-03-02T11:51:33;9.21;82.89
66582;SHT31;53438;48.898;2.308;2024-03-02T11:54:00;9.21;81.86
66582;SHT31;53438;48.898;2.308;2024-03-02T11:56:28;9.28;81.91
66582;SHT31;53438;48.898;2.308;2024-03-02T11:58:55;9.26;81.89
66582;SHT31;53438;48.898;2.308;2024-03-02T12:01:21;9.29;82.36
66582;SHT31;53438;48.898;2.308;2024-03-02T12:03:47;9.32;81.96
66582;SHT31;53438;48.898;2.308;2024-03-02T12:06:13;9.35;82.35
66582;SHT31;53438;48.898;2.308;2024-03-02T12:08:38;9.39;82.30
66582;SHT31;53438;48.898;2.308;2024-03-02T12:11:04;9.36;82.87
66582;SHT31;53438;48.898;2.308;2024-03-02T12:13:31;9.35;82.56
66582;SHT31;53438;48.898;2.308;2024-03-02T12:15:57;9.35;82.33
66582;SHT31;53438;48.898;2.308;2024-03-02T12:18:22;9.28;82.04
66582;SHT31;53438;48.898;2.308;2024-03-02T12:20:49;9.26;82.36
66582;SHT31;53438;48.898;2.308;2024-03-02T12:23:18;9.25;82.60
66582;SHT31;53438;48.898;2.308;2024-03-02T12:25:43;9.28;82.98
66582;SHT31;53438;48.898;2.308;2024-03-02T12:28:09;9.26;82.94
66582;SHT31;53438;48.898;2.308;2024-03-02T12:30:35;9.26;83.50
66582;SHT31;53438;48.898;2.308;2024-03-02T12:33:00;9.26;83.48
66582;SHT31;53438;48.898;2.308;2024-03-02T12:35:26;9.32;83.61
66582;SHT31;53438;48.898;2.308;2024-03-02T12:37:52;9.28;83.91
66582;SHT31;53438;48.898;2.308;2024-03-02T12:40:19;9.29;84.16
66582;SHT31;53438;48.898;2.308;2024-03-02T12:42:45;9.29;84.08
66582;SHT31;53438;48.898;2.308;2024-03-02T12:45:11;9.31;83.95
66582;SHT31;53438;48.898;2.308;2024-03-02T12:47:39;9.34;83.89
66582;SHT31;53438;48.898;2.308;2024-03-02T12:50:06;9.32;83.72
66582;SHT31;53438;48.898;2.308;2024-03-02T12:52:31;9.34;83.66
66582;SHT31;53438;48.898;2.308;2024-03-02T12:54:58;9.36;83.81
66582;SHT31;53438;48.898;2.308;2024-03-02T12:57:32;9.36;83.43
66582;SHT31;53438;48.898;2.308;2024-03-02T13:00:02;9.35;83.51
66582;SHT31;53438;48.898;2.308;2024-03-02T13:02:35;9.34;83.07
66582;SHT31;53438;48.898;2.308;2024-03-02T13:05:00;9.36;82.77
66582;SHT31;53438;48.898;2.308;2024-03-02T13:07:26;9.40;83.33
66582;SHT31;53438;48.898;2.308;2024-03-02T13:09:52;9.46;83.37
66582;SHT31;53438;48.898;2.308;2024-03-02T13:12:21;9.45;82.98
66582;SHT31;53438;48.898;2.308;2024-03-02T13:14:51;9.40;82.98
66582;SHT31;53438;48.898;2.308;2024-03-02T13:17:18;9.43;82.95
66582;SHT31;53438;48.898;2.308;2024-03-02T13:19:57;9.45;82.92
66582;SHT31;53438;48.898;2.308;2024-03-02T13:22:23;9.45;82.36
66582;SHT31;53438;48.898;2.308;2024-03-02T13:24:50;9.43;82.61
66582;SHT31;53438;48.898;2.308;2024-03-02T13:27:16;9.49;83.03
66582;SHT31;53438;48.898;2.308;2024-03-02T13:29:44;9.50;82.84
66582;SHT31;53438;48.898;2.308;2024-03-02T13:32:10;9.52;83.42
66582;SHT31;53438;48.898;2.308;2024-03-02T13:34:35;9.52;83.03
66582;SHT31;53438;48.898;2.308;2024-03-02T13:37:02;9.49;82.60
66582;SHT31;53438;48.898;2.308;2024-03-02T13:39:27;9.47;83.15
66582;SHT31;53438;48.898;2.308;2024-03-02T13:41:56;9.42;83.30
66582;SHT31;53438;48.898;2.308;2024-03-02T13:44:28;9.47;84.42
66582;SHT31;53438;48.898;2.308;2024-03-02T13:46:53;9.47;83.88
66582;SHT31;53438;48.898;2.308;2024-03-02T13:49:19;9.45;84.32
66582;SHT31;53438;48.898;2.308;2024-03-02T13:51:44;9.39;84.73
66582;SHT31;53438;48.898;2.308;2024-03-02T13:54:10;9.39;84.70
66582;SHT31;53438;48.898;2.308;2024-03-02T13:56:37;9.42;84.89
66582;SHT31;53438;48.898;2.308;2024-03-02T13:59:04;9.42;84.92
66582;SHT31;53438;48.898;2.308;2024-03-02T14:01:31;9.39;84.90
66582;SHT31;53438;48.898;2.308;2024-03-02T14:03:56;9.40;85.04
66582;SHT31;53438;48.898;2.308;2024-03-02T14:06:21;9.40;86.05
66582;SHT31;53438;48.898;2.308;2024-03-02T14:08:47;9.40;86.03
66582;SHT31;53438;48.898;2.308;2024-03-02T14:11:14;9.39;85.94
66582;SHT31;53438;48.898;2.308;2024-03-02T14:13:41;9.38;86.27
66582;SHT31;53438;48.898;2.308;2024-03-02T14:16:06;9.47;86.32
66582;SHT31;53438;48.898;2.308;2024-03-02T14:18:31;9.46;86.73
66582;SHT31;53438;48.898;2.308;2024-03-02T14:20:57;9.52;86.62
66582;SHT31;53438;48.898;2.308;2024-03-02T14:23:22;9.52;86.78
66582;SHT31;53438;48.898;2.308;2024-03-02T14:25:48;9.49;86.50
66582;SHT31;53438;48.898;2.308;2024-03-02T14:28:13;9.47;87.13
66582;SHT31;53438;48.898;2.308;2024-03-02T14:30:39;9.49;87.26
66582;SHT31;53438;48.898;2.308;2024-03-02T14:33:04;9.49;87.69
66582;SHT31;53438;48.898;2.308;2024-03-02T14:35:29;9.52;87.75
66582;SHT31;53438;48.898;2.308;2024-03-02T14:37:55;9.49;87.72
66582;SHT31;53438;48.898;2.308;2024-03-02T14:40:22;9.49;87.79
66582;SHT31;53438;48.898;2.308;2024-03-02T14:42:50;9.31;87.13
66582;SHT31;53438;48.898;2.308;2024-03-02T14:45:15;9.36;87.01
66582;SHT31;53438;48.898;2.308;2024-03-02T14:47:41;9.42;87.84
66582;SHT31;53438;48.898;2.308;2024-03-02T14:50:07;9.38;87.27
66582;SHT31;53438;48.898;2.308;2024-03-02T14:52:34;9.38;87.79
66582;SHT31;53438;48.898;2.308;2024-03-02T14:54:59;9.42;87.90
66582;SHT31;53438;48.898;2.308;2024-03-02T14:57:24;9.39;87.10
66582;SHT31;53438;48.898;2.308;2024-03-02T14:59:50;9.39;87.29
66582;SHT31;53438;48.898;2.308;2024-03-02T15:02:15;9.35;86.99
66582;SHT31;53438;48.898;2.308;2024-03-02T15:04:40;9.32;87.23
66582;SHT31;53438;48.898;2.308;2024-03-02T15:07:06;9.28;86.91
66582;SHT31;53438;48.898;2.308;2024-03-02T15:09:31;9.25;86.59
66582;SHT31;53438;48.898;2.308;2024-03-02T15:11:58;9.26;87.46
66582;SHT31;53438;48.898;2.308;2024-03-02T15:14:24;9.29;87.50
66582;SHT31;53438;48.898;2.308;2024-03-02T15:16:49;9.34;86.99
66582;SHT31;53438;48.898;2.308;2024-03-02T15:19:15;9.31;86.60
66582;SHT31;53438;48.898;2.308;2024-03-02T15:21:40;9.29;86.78
66582;SHT31;53438;48.898;2.308;2024-03-02T15:24:06;9.31;86.51
66582;SHT31;53438;48.898;2.308;2024-03-02T15:26:31;9.32;86.69
66582;SHT31;53438;48.898;2.308;2024-03-02T15:28:56;9.35;86.77
66582;SHT31;53438;48.898;2.308;2024-03-02T15:31:24;9.35;86.11
66582;SHT31;53438;48.898;2.308;2024-03-02T15:33:49;9.26;86.00
66582;SHT31;53438;48.898;2.308;2024-03-02T15:36:16;9.31;86.10
66582;SHT31;53438;48.898;2.308;2024-03-02T15:38:41;9.17;85.57
66582;SHT31;53438;48.898;2.308;2024-03-02T15:41:06;9.29;85.95
66582;SHT31;53438;48.898;2.308;2024-03-02T15:43:32;9.28;86.50
66582;SHT31;53438;48.898;2.308;2024-03-02T15:45:57;9.32;86.30
66582;SHT31;53438;48.898;2.308;2024-03-02T15:48:23;9.32;86.14
66582;SHT31;53438;48.898;2.308;2024-03-02T15:50:49;9.38;86.53
66582;SHT31;53438;48.898;2.308;2024-03-02T15:53:17;9.36;86.23
66582;SHT31;53438;48.898;2.308;2024-03-02T15:55:42;9.35;86.20
66582;SHT31;53438;48.898;2.308;2024-03-02T15:58:08;9.21;85.85
66582;SHT31;53438;48.898;2.308;2024-03-02T16:00:33;9.21;86.80
66582;SHT31;53438;48.898;2.308;2024-03-02T16:03:00;9.29;86.47
66582;SHT31;53438;48.898;2.308;2024-03-02T16:05:26;9.24;86.52
66582;SHT31;53438;48.898;2.308;2024-03-02T16:07:51;9.31;87.59
66582;SHT31;53438;48.898;2.308;2024-03-02T16:10:17;9.22;88.62
66582;SHT31;53438;48.898;2.308;2024-03-02T16:12:43;8.33;87.18
66582;SHT31;53438;48.898;2.308;2024-03-02T16:15:08;8.13;87.25
66582;SHT31;53438;48.898;2.308;2024-03-02T16:17:34;8.10;86.84
66582;SHT31;53438;48.898;2.308;2024-03-02T16:20:01;7.78;86.69
66582;SHT31;53438;48.898;2.308;2024-03-02T16:22:26;7.71;87.06
66582;SHT31;53438;48.898;2.308;2024-03-02T16:24:51;7.92;87.24
66582;SHT31;53438;48.898;2.308;2024-03-02T16:27:17;7.88;87.12
66582;SHT31;53438;48.898;2.308;2024-03-02T16:29:45;7.70;86.90
66582;SHT31;53438;48.898;2.308;2024-03-02T16:32:11;7.64;87.69
66582;SHT31;53438;48.898;2.308;2024-03-02T16:34:37;7.73;87.60
66582;SHT31;53438;48.898;2.308;2024-03-02T16:37:04;7.78;88.39
66582;SHT31;53438;48.898;2.308;2024-03-02T16:39:29;7.58;88.39
66582;SHT31;53438;48.898;2.308;2024-03-02T16:41:54;7.66;89.15
66582;SHT31;53438;48.898;2.308;2024-03-02T16:44:20;7.87;88.90
66582;SHT31;53438;48.898;2.308;2024-03-02T16:46:45;7.85;88.65
66582;SHT31;53438;48.898;2.308;2024-03-02T16:49:12;7.70;88.79
66582;SHT31;53438;48.898;2.308;2024-03-02T16:51:42;7.73;88.74
66582;SHT31;53438;48.898;2.308;2024-03-02T16:54:07;7.89;89.65
66582;SHT31;53438;48.898;2.308;2024-03-02T16:59:05;7.87;88.79
66582;SHT31;53438;48.898;2.308;2024-03-02T17:01:30;7.85;88.66
66582;SHT31;53438;48.898;2.308;2024-03-02T17:03:55;7.64;88.66
66582;SHT31;53438;48.898;2.308;2024-03-02T17:06:21;7.58;88.77
66582;SHT31;53438;48.898;2.308;2024-03-02T17:08:46;7.50;89.73
66582;SHT31;53438;48.898;2.308;2024-03-02T17:11:11;7.50;89.66
66582;SHT31;53438;48.898;2.308;2024-03-02T17:13:37;7.53;89.70
66582;SHT31;53438;48.898;2.308;2024-03-02T17:16:02;7.51;90.03
66582;SHT31;53438;48.898;2.308;2024-03-02T17:18:27;7.53;90.08
66582;SHT31;53438;48.898;2.308;2024-03-02T17:20:53;7.50;90.82
66582;SHT31;53438;48.898;2.308;2024-03-02T17:23:18;7.40;90.13
66582;SHT31;53438;48.898;2.308;2024-03-02T17:25:43;7.56;90.86
66582;SHT31;53438;48.898;2.308;2024-03-02T17:28:22;7.71;91.25
66582;SHT31;53438;48.898;2.308;2024-03-02T17:30:48;7.66;90.73
66582;SHT31;53438;48.898;2.308;2024-03-02T17:33:14;7.24;90.10
66582;SHT31;53438;48.898;2.308;2024-03-02T17:35:39;7.42;91.42
66582;SHT31;53438;48.898;2.308;2024-03-02T17:38:05;7.22;90.37
66582;SHT31;53438;48.898;2.308;2024-03-02T17:40:30;7.37;91.02
66582;SHT31;53438;48.898;2.308;2024-03-02T17:42:56;7.34;90.60
66582;SHT31;53438;48.898;2.308;2024-03-02T17:45:22;7.28;90.53
66582;SHT31;53438;48.898;2.308;2024-03-02T17:47:47;7.17;90.82
66582;SHT31;53438;48.898;2.308;2024-03-02T17:50:12;7.19;90.27
66582;SHT31;53438;48.898;2.308;2024-03-02T17:52:38;7.06;89.53
66582;SHT31;53438;48.898;2.308;2024-03-02T17:55:04;7.23;89.73
66582;SHT31;53438;48.898;2.308;2024-03-02T17:57:30;7.22;89.56
66582;SHT31;53438;48.898;2.308;2024-03-02T17:59:55;7.30;89.71
66582;SHT31;53438;48.898;2.308;2024-03-02T18:02:20;7.38;89.38
66582;SHT31;53438;48.898;2.308;2024-03-02T18:04:46;7.36;89.05
66582;SHT31;53438;48.898;2.308;2024-03-02T18:07:11;7.24;88.82
66582;SHT31;53438;48.898;2.308;2024-03-02T18:09:36;7.30;89.17
66582;SHT31;53438;48.898;2.308;2024-03-02T18:12:02;7.37;88.95
66582;SHT31;53438;48.898;2.308;2024-03-02T18:14:27;7.23;88.73
66582;SHT31;53438;48.898;2.308;2024-03-02T18:16:53;7.16;88.24
66582;SHT31;53438;48.898;2.308;2024-03-02T18:19:18;7.16;88.62
66582;SHT31;53438;48.898;2.308;2024-03-02T18:21:43;7.13;88.46
66582;SHT31;53438;48.898;2.308;2024-03-02T18:24:10;7.24;89.45
66582;SHT31;53438;48.898;2.308;2024-03-02T18:26:35;7.26;88.84
66582;SHT31;53438;48.898;2.308;2024-03-02T18:29:00;7.23;89.34
66582;SHT31;53438;48.898;2.308;2024-03-02T18:31:26;7.22;89.15
66582;SHT31;53438;48.898;2.308;2024-03-02T18:33:51;7.13;89.11
66582;SHT31;53438;48.898;2.308;2024-03-02T18:36:17;7.23;89.00
66582;SHT31;53438;48.898;2.308;2024-03-02T18:38:42;7.16;88.41
66582;SHT31;53438;48.898;2.308;2024-03-02T18:41:07;7.15;88.47
66582;SHT31;53438;48.898;2.308;2024-03-02T18:43:33;7.20;88.77
66582;SHT31;53438;48.898;2.308;2024-03-02T18:45:58;7.17;88.38
66582;SHT31;53438;48.898;2.308;2024-03-02T18:48:24;6.91;88.53
66582;SHT31;53438;48.898;2.308;2024-03-02T18:50:51;6.88;87.71
66582;SHT31;53438;48.898;2.308;2024-03-02T18:53:17;6.97;87.76
66582;SHT31;53438;48.898;2.308;2024-03-02T18:55:42;7.06;88.31